createdAt,value
2023-01-31T00:01:37.440Z,100.00
2023-01-31T00:06:43.185Z,100.00
2023-01-31T00:11:44.989Z,100.00
2023-01-31T00:16:48.657Z,100.00
2023-01-31T00:21:50.520Z,100.00
2023-01-31T00:26:57.099Z,100.00
2023-01-31T00:32:01.167Z,100.00
2023-01-31T00:37:03.212Z,100.00
2023-01-31T00:42:07.746Z,100.00
2023-01-31T00:47:09.530Z,100.00
2023-01-31T00:52:11.487Z,100.00
2023-01-31T00:57:13.316Z,100.00
2023-01-31T01:02:15.356Z,99.48
2023-01-31T01:07:17.561Z,98.62
2023-01-31T01:12:19.323Z,97.75
2023-01-31T01:17:22.258Z,97.10
2023-01-31T01:22:24.252Z,95.41
2023-01-31T01:27:27.352Z,94.99
2023-01-31T01:32:29.871Z,95.00
2023-01-31T01:37:31.768Z,94.41
2023-01-31T01:42:34.900Z,93.60
2023-01-31T01:47:42.646Z,93.60
2023-01-31T01:52:47.546Z,97.27
2023-01-31T01:57:56.919Z,98.86
2023-01-31T02:02:59.793Z,99.29
2023-01-31T02:08:02.347Z,99.43
2023-01-31T02:13:04.736Z,99.86
2023-01-31T02:18:07.499Z,99.34
2023-01-31T02:23:34.750Z,98.57
2023-01-31T02:28:55.531Z,97.44
2023-01-31T02:34:12.320Z,95.78
2023-01-31T02:39:37.737Z,94.51
2023-01-31T02:44:59.250Z,94.17
2023-01-31T02:50:21.806Z,93.18
2023-01-31T02:55:49.909Z,92.68
2023-01-31T03:00:56.323Z,91.93
2023-01-31T03:06:33.552Z,91.58
2023-01-31T03:11:42.220Z,91.29
2023-01-31T03:17:09.523Z,89.38
2023-01-31T03:22:16.385Z,89.14
2023-01-31T03:27:20.873Z,90.66
2023-01-31T03:32:27.755Z,93.42
2023-01-31T03:37:55.107Z,96.25
2023-01-31T03:43:00.798Z,97.76
2023-01-31T03:48:06.629Z,98.61
2023-01-31T03:53:14.154Z,99.40
2023-01-31T03:58:20.785Z,99.98
2023-01-31T04:03:43.571Z,100.00
2023-01-31T04:08:45.496Z,100.00
2023-01-31T04:13:47.644Z,100.00
2023-01-31T04:18:49.445Z,100.00
2023-01-31T04:23:51.342Z,100.00
2023-01-31T04:28:53.164Z,99.60
2023-01-31T04:33:54.984Z,97.70
2023-01-31T04:38:56.871Z,94.24
2023-01-31T04:43:58.634Z,91.09
2023-01-31T04:49:00.484Z,88.02
2023-01-31T04:54:02.351Z,87.41
2023-01-31T04:59:04.280Z,88.89
2023-01-31T05:04:06.067Z,90.46
2023-01-31T05:09:07.930Z,92.04
2023-01-31T05:14:10.138Z,96.50
2023-01-31T05:19:12.273Z,99.67
2023-01-31T05:24:14.025Z,100.00
2023-01-31T05:29:15.764Z,100.00
2023-01-31T05:34:18.188Z,99.99
2023-01-31T05:39:20.123Z,99.63
2023-01-31T05:44:22.024Z,99.28
2023-01-31T05:49:23.741Z,98.36
2023-01-31T05:54:26.068Z,97.29
2023-01-31T05:59:31.064Z,95.97
2023-01-31T06:04:33.505Z,94.32
2023-01-31T06:09:35.354Z,91.47
2023-01-31T06:14:37.137Z,90.04
2023-01-31T06:19:38.964Z,89.82
2023-01-31T06:24:40.960Z,90.31
2023-01-31T06:29:42.872Z,90.20
2023-01-31T06:34:44.801Z,89.83
2023-01-31T06:39:46.551Z,88.88
2023-01-31T06:44:48.398Z,87.69
2023-01-31T06:49:50.185Z,86.22
2023-01-31T06:54:52.031Z,85.03
2023-01-31T06:59:53.835Z,84.19
2023-01-31T07:21:58.932Z,81.05
2023-01-31T07:27:01.309Z,80.44
2023-01-31T07:32:03.104Z,81.40
2023-01-31T07:37:04.952Z,81.08
2023-01-31T07:42:06.600Z,81.77
2023-01-31T07:47:08.279Z,82.38
2023-01-31T07:52:09.962Z,82.45
2023-01-31T07:57:13.221Z,82.25
2023-01-31T08:02:35.788Z,82.53
2023-01-31T08:07:37.818Z,81.55
2023-01-31T08:12:39.649Z,81.51
2023-01-31T08:17:41.361Z,80.64
2023-01-31T08:22:42.976Z,79.98
2023-01-31T08:27:44.729Z,79.10
2023-01-31T08:32:46.386Z,77.71
2023-01-31T08:37:48.113Z,76.87
2023-01-31T08:42:56.706Z,76.22
2023-01-31T08:48:00.101Z,75.86
2023-01-31T08:53:04.740Z,74.69
2023-01-31T08:58:06.577Z,73.76
2023-01-31T09:03:17.138Z,73.54
2023-01-31T09:08:18.900Z,73.44
2023-01-31T09:13:20.616Z,72.01
2023-01-31T09:18:22.342Z,72.27
2023-01-31T09:23:24.107Z,72.60
2023-01-31T09:28:26.283Z,72.45
2023-01-31T09:33:28.691Z,73.40
2023-01-31T09:38:31.297Z,73.41
2023-01-31T09:43:40.631Z,72.74
2023-01-31T09:48:47.715Z,73.63
2023-01-31T09:53:49.662Z,74.33
2023-01-31T09:59:07.804Z,73.87
2023-01-31T10:04:26.335Z,74.38
2023-01-31T10:09:38.802Z,74.62
2023-01-31T10:14:57.761Z,74.59
2023-01-31T10:20:07.184Z,74.44
2023-01-31T10:25:28.126Z,73.34
2023-01-31T10:30:42.667Z,72.40
2023-01-31T10:35:46.707Z,72.11
2023-01-31T10:40:54.845Z,73.23
2023-01-31T10:46:00.298Z,72.11
2023-01-31T10:51:20.733Z,70.80
2023-01-31T10:56:33.564Z,69.45
2023-01-31T11:01:36.491Z,70.08
2023-01-31T11:06:38.296Z,70.72
2023-01-31T11:11:52.931Z,70.67
2023-01-31T11:17:05.756Z,71.25
2023-01-31T11:22:09.354Z,71.09
2023-01-31T11:27:22.604Z,71.42
2023-01-31T11:32:28.579Z,72.10
2023-01-31T11:37:34.027Z,70.34
2023-01-31T11:42:51.317Z,69.35
2023-01-31T11:47:55.759Z,69.09
2023-01-31T11:53:00.518Z,70.32
2023-01-31T11:58:08.553Z,70.04
2023-01-31T12:03:16.635Z,70.81
2023-01-31T12:08:39.602Z,71.86
2023-01-31T12:13:50.168Z,73.48
2023-01-31T12:19:01.144Z,73.89
2023-01-31T12:24:25.026Z,73.72
2023-01-31T12:30:03.190Z,74.99
2023-01-31T12:35:23.334Z,77.77
2023-01-31T12:40:39.022Z,80.68
2023-01-31T12:45:43.824Z,81.03
2023-01-31T12:51:01.943Z,80.30
2023-01-31T12:56:04.685Z,78.99
2023-01-31T13:31:22.117Z,76.03
2023-01-31T13:36:30.879Z,75.78
2023-01-31T13:41:33.977Z,76.81
2023-01-31T13:46:45.257Z,79.63
2023-01-31T13:51:56.454Z,81.47
2023-01-31T13:57:00.427Z,83.50
2023-01-31T14:02:05.304Z,85.14
2023-01-31T14:07:07.161Z,86.26
2023-01-31T14:12:15.648Z,87.20
2023-01-31T14:17:23.475Z,87.42
2023-01-31T14:22:35.250Z,87.59
2023-01-31T14:28:01.715Z,88.45
2023-01-31T14:33:12.743Z,88.74
2023-01-31T14:38:36.480Z,88.63
2023-01-31T14:44:12.195Z,88.91
2023-01-31T14:49:41.339Z,89.68
2023-01-31T14:54:59.751Z,89.93
2023-01-31T15:00:18.471Z,89.79
2023-01-31T15:05:32.217Z,89.62
2023-01-31T15:11:02.209Z,89.42
2023-01-31T15:16:09.175Z,89.25
2023-01-31T15:21:11.888Z,89.22
2023-01-31T15:26:16.883Z,88.87
2023-01-31T15:31:29.722Z,89.08
2023-01-31T15:36:37.396Z,88.59
2023-01-31T15:41:45.812Z,88.29
2023-01-31T15:46:51.948Z,88.33
2023-01-31T15:52:17.275Z,88.34
2023-01-31T15:57:20.543Z,87.71
2023-01-31T16:02:29.183Z,86.98
2023-01-31T16:07:31.897Z,86.30
2023-01-31T16:12:40.591Z,85.65
2023-01-31T16:17:42.449Z,84.83
2023-01-31T16:22:56.175Z,84.64
2023-01-31T16:28:02.293Z,84.77
2023-01-31T16:33:04.094Z,84.99
2023-01-31T16:38:16.640Z,85.34
2023-01-31T16:43:30.339Z,85.99
2023-01-31T16:48:36.991Z,86.12
2023-01-31T16:53:41.652Z,86.69
2023-01-31T16:58:50.936Z,87.29
2023-01-31T17:04:06.027Z,88.33
2023-01-31T17:09:13.961Z,89.32
2023-01-31T17:14:16.169Z,90.88
2023-01-31T17:19:18.113Z,91.66
2023-01-31T17:24:22.638Z,92.18
2023-01-31T17:29:26.043Z,93.33
2023-01-31T17:34:27.851Z,94.13
2023-01-31T17:39:29.714Z,95.11
2023-01-31T17:44:31.971Z,95.61
2023-01-31T17:49:34.978Z,95.69
2023-01-31T17:54:37.465Z,96.30
2023-01-31T17:59:39.424Z,96.80
2023-01-31T18:04:41.168Z,96.93
2023-01-31T18:09:43.526Z,97.40
2023-01-31T18:14:45.671Z,97.47
2023-01-31T18:19:47.840Z,97.58
2023-01-31T18:24:49.601Z,97.43
2023-01-31T18:35:07.705Z,97.44
2023-01-31T18:48:39.085Z,97.13
2023-01-31T18:53:43.928Z,97.44
2023-01-31T18:58:49.284Z,97.91
2023-01-31T19:47:11.243Z,98.03
2023-01-31T19:52:12.422Z,97.87
2023-01-31T20:02:56.724Z,98.01
2023-01-31T20:08:00.199Z,97.95
2023-01-31T20:13:03.026Z,98.15
2023-01-31T20:18:05.592Z,98.37
2023-01-31T20:23:09.186Z,98.71
2023-01-31T22:02:30.908Z,91.90
2023-01-31T22:07:32.783Z,91.44
2023-01-31T22:12:35.901Z,92.15
2023-01-31T22:17:37.823Z,92.45
2023-01-31T22:22:39.530Z,92.35
2023-01-31T22:27:41.281Z,92.76
2023-01-31T22:32:43.092Z,92.93
2023-01-31T22:37:44.909Z,92.74
2023-01-31T22:42:46.600Z,93.33
2023-01-31T22:47:48.313Z,93.35
2023-01-31T22:52:50.652Z,93.56
2023-01-31T22:57:52.523Z,93.34
2023-01-31T23:02:54.185Z,93.44
2023-01-31T23:07:57.504Z,93.18
2023-01-31T23:12:59.247Z,92.94
2023-01-31T23:18:01.414Z,92.93
2023-01-31T23:23:03.111Z,93.39
2023-01-31T23:28:11.537Z,94.25
2023-01-31T23:33:13.771Z,95.12
2023-01-31T23:38:16.482Z,95.38
2023-01-31T23:43:18.506Z,95.73
2023-01-31T23:48:20.327Z,96.03
2023-01-31T23:53:22.012Z,95.77
2023-01-31T23:58:23.696Z,94.84
